Impacts METAR Board
IDs:

KSLC - Salt Lake City Intl, UT, US

Updated at: 1600 UTC 03 Dec 2021
Potential Impact None Slight Moderate High
Time 03/04Z 03/05Z 03/06Z 03/07Z 03/08Z 03/09Z 03/10Z 03/11Z 03/12Z 03/13Z 03/14Z 03/15Z 03/16Z
Temp39 39 38 38 36 34 32 33 33 33 34 34 35
Dewpt34 34 33 33 32 30 29 30 30 30 30 31 31
Altim30.21 30.22 30.23 30.23 30.23 30.22 30.24 30.23 30.22 30.22 30.22 30.24 30.25
VIS10 10 10 10 10 10 10 10 10 10 10 10 8
CIG-- -- -- -- -- -- -- -- -- -- -- -- --
CoverCLRCLRCLRCLRCLRCLRCLRCLRCLRCLRFEWSCTFEW
FltCatVFRVFRVFRVFRVFRVFRVFRVFRVFRVFRVFRVFRVFR
WX--------------------------
WDir018001301002602015014012013020220
WSpd0 3 0 3 3 3 3 5 6 6 6 10 4
WGst-- -- -- -- -- -- -- -- -- -- -- -- --
Raw hourly METARs
KSLC 030354Z 00000KT 10SM CLR 04/01 A3021 RMK AO2 SLP234 T00390011
KSLC 030454Z 18003KT 10SM CLR 04/01 A3022 RMK AO2 SLP230 T00390011
KSLC 030554Z 00000KT 10SM CLR 03/01 A3023 RMK AO2 SLP230 T00330006 10089 20028 53005
KSLC 030654Z 13003KT 10SM CLR 03/01 A3023 RMK AO2 SLP230 T00330006 401391011
KSLC 030754Z 10003KT 10SM CLR 02/00 A3023 RMK AO2 SLP225 T00220000
KSLC 030854Z 26003KT 10SM CLR 01/M01 A3022 RMK AO2 SLP225 T00111011 58002
KSLC 030954Z 02003KT 10SM CLR 00/M02 A3024 RMK AO2 SLP235 T00001017
KSLC 031054Z 15005KT 10SM CLR 01/M01 A3023 RMK AO2 SLP233 T00061011
KSLC 031154Z 14006KT 10SM CLR 01/M01 A3022 RMK AO2 SLP232 T00061011 10033 20000 50001
KSLC 031254Z 12006KT 10SM CLR 01/M01 A3022 RMK AO2 SLP235 T00061011
KSLC 031354Z 13006KT 10SM FEW200 01/M01 A3022 RMK AO2 SLP237 T00111011
KSLC 031454Z 02010KT 10SM FEW140 SCT220 01/M01 A3024 RMK AO2 SLP239 T00111006 53006
KSLC 031554Z 22004KT 8SM FEW220 02/M01 A3025 RMK AO2 SLP248 T00171006



Page loaded:  16:25 UTC  |   08:25 AM Pacific  |   09:25 AM Mountain  |   10:25 AM Central  |   11:25 AM Eastern

 

ADVISORIES

FORECASTS

FORECASTS

OBSERVATIONS

USER TOOLS

ABOUT US